Cerro Cora, Brazil
Current Conditions -  °F | °C
As of 4:00 AM on Monday 22 Dec 2014 (Local Time) from SBNT Reporting Station
Scattered Clouds Scattered Clouds  
Wind Chill: 75°   Ceiling: Unl
Heat Index: 75°   Visibility: 6mi
Dew Point: 72°   Wind: 2mph
Humidity: 89%   Direction: 160°SSE
Pressure: 29.88"   Gusts: NA
Location:  6.05°S, 36.35°W
Report Text: SBNT 220700Z 16002KT 9999 SCT020 SCT070 24/22 Q1012
Loading
Personal Weather Stations






























Interactive Weather Map New forecast layout! Learn more

10-Day Weather Forecast

Advertisements
Track Severe Weather on mobile